Clifford Maersk — OYRO2 — position and weather

sailwx.info

Track history (hours):
 
Tides and Currents Weather Stations Pressure Air Temp Water Temp Dewpoint Dewpoint Depression Visibility Wind Speed Wind Dir Waves Ship Positions

Clifford Maersk

Last reported at 2015-Jan-20 01:33 UTC. Time now 2015-Jan-26 02:22 UTC.
Position N 34°06' W 125°53'.

Type: Ship (hazmat cat A). MMSI: 219840000.

Date/timePositionNaut miles runAvg speedWind from/ knotsBaromVisibWave heightAir tempDewpointWater temp
2015-Jan-20 01:33N 34°06' W 125°53'1515.2
2015-Jan-20 00:33N 33°55' W 125°42'1514.7
2015-Jan-19 23:33N 33°44' W 125°30'1514.7
2015-Jan-19 22:33N 33°33' W 125°18'22015.7
2015-Jan-19 08:33N 30°43' W 122°33'2215.7
2015-Jan-19 07:10N 30°29' W 122°14'11116.0
2015-Jan-19 00:14N 29°21' W 120°33'3316.1
2015-Jan-18 22:12N 29°01' W 120°03'1015.9
2015-Jan-18 21:33N 28°55' W 119°54'1615.9
2015-Jan-18 20:32N 28°45' W 119°39'1615.9
2015-Jan-18 19:33N 28°35' W 119°25'3915.9
2015-Jan-18 17:05N 28°11' W 118°50'916.3
2015-Jan-18 16:33N 28°05' W 118°42'2516.6
2015-Jan-18 15:04N 27°50' W 118°20'916.4
2015-Jan-18 14:31N 27°45' W 118°12'1816.2
2015-Jan-18 13:25N 27°34' W 117°56'1416.1
2015-Jan-18 12:33N 27°26' W 117°44'  
Track history (hours):
 
Tides and Currents Weather Stations Pressure Air Temp Water Temp Dewpoint Dewpoint Depression Visibility Wind Speed Wind Dir Waves Ship Positions

Clifford Maersk

Last reported at 2015-Jan-20 01:33 UTC. Time now 2015-Jan-26 02:22 UTC.
Position N 34°06' W 125°53'.

Type: Ship (hazmat cat A). MMSI: 219840000.

Date/timePositionNaut miles runAvg speedWind from/ knotsBaromVisibWave heightAir tempDewpointWater temp
2015-Jan-20 01:33N 34°06' W 125°53'1515.2
2015-Jan-20 00:33N 33°55' W 125°42'1514.7
2015-Jan-19 23:33N 33°44' W 125°30'1514.7
2015-Jan-19 22:33N 33°33' W 125°18'22015.7
2015-Jan-19 08:33N 30°43' W 122°33'2215.7
2015-Jan-19 07:10N 30°29' W 122°14'11116.0
2015-Jan-19 00:14N 29°21' W 120°33'3316.1
2015-Jan-18 22:12N 29°01' W 120°03'1015.9
2015-Jan-18 21:33N 28°55' W 119°54'1615.9
2015-Jan-18 20:32N 28°45' W 119°39'1615.9
2015-Jan-18 19:33N 28°35' W 119°25'3915.9
2015-Jan-18 17:05N 28°11' W 118°50'916.3
2015-Jan-18 16:33N 28°05' W 118°42'2516.6
2015-Jan-18 15:04N 27°50' W 118°20'916.4
2015-Jan-18 14:31N 27°45' W 118°12'1816.2
2015-Jan-18 13:25N 27°34' W 117°56'1416.1
2015-Jan-18 12:33N 27°26' W 117°44'  

Dump ship's entire track history